Penhar — PBXQ — position and weather

sailwx.info

Track history (hours):
 
Tides and Currents Weather Stations Pressure Air Temp Water Temp Dewpoint Dewpoint Depression Visibility Wind Speed Wind Dir Waves Ship Positions

Penhar

Last reported at 2018-Jun-16 03:48 UTC. Time now 2018-Jun-17 22:16 UTC.
Position N 41°01' W 009°49'.

Length 119 m; draft 6.2 m.

Type: Ship. MMSI: 246666000.

Date/timePositionNaut miles runAvg speedWind from/ knotsBaromVisibWave heightAir tempDewpointWater temp
2018-Jun-16 03:48N 41°01' W 009°49'2 8.2
2018-Jun-16 03:30N 40°58' W 009°49'5 8.1
2018-Jun-16 02:55N 40°54' W 009°49'3 7.8
2018-Jun-16 02:30N 40°51' W 009°49'4 7.8
2018-Jun-16 02:00N 40°47' W 009°49'4 7.6
2018-Jun-16 01:30N 40°43' W 009°48'4 7.4
2018-Jun-16 00:59N 40°39' W 009°48'4 7.5
2018-Jun-16 00:30N 40°35' W 009°48'4 7.6
2018-Jun-15 23:59N 40°31' W 009°48'4 7.7
2018-Jun-15 23:30N 40°28' W 009°49'4 7.5
2018-Jun-15 22:58N 40°24' W 009°49'3 7.5
2018-Jun-15 22:30N 40°20' W 009°49'4 7.5
2018-Jun-15 22:00N 40°16' W 009°49'4 7.6
2018-Jun-15 21:30N 40°13' W 009°50'4 7.5
2018-Jun-15 21:00N 40°09' W 009°50'4 7.7
2018-Jun-15 20:29N 40°05' W 009°50'4 8.0
2018-Jun-15 20:00N 40°01' W 009°49'4 8.2
2018-Jun-15 19:30N 39°57' W 009°50'4 8.0
2018-Jun-15 19:00N 39°53' W 009°50'4 8.0
2018-Jun-15 18:30N 39°49' W 009°50'4 8.2
2018-Jun-15 18:00N 39°45' W 009°50'4 8.3
2018-Jun-15 17:30N 39°41' W 009°50'4 8.3
2018-Jun-15 16:58N 39°36' W 009°50'4 8.2
2018-Jun-15 16:30N 39°32' W 009°50'4 8.3
2018-Jun-15 16:00N 39°28' W 009°50'4 8.5
2018-Jun-15 15:28N 39°24' W 009°50'4 8.6
2018-Jun-15 15:00N 39°20' W 009°50'4 8.8
2018-Jun-15 14:30N 39°15' W 009°50'4 8.9
2018-Jun-15 14:00N 39°11' W 009°50'4 8.8
2018-Jun-15 13:30N 39°06' W 009°50'4 8.7
2018-Jun-15 13:00N 39°02' W 009°50'4 9.0
2018-Jun-15 12:30N 38°58' W 009°50'5 9.1
2018-Jun-15 12:00N 38°53' W 009°50'5 9.2
2018-Jun-15 11:30N 38°49' W 009°51'5 9.2
2018-Jun-15 11:00N 38°44' W 009°51'4 9.0
2018-Jun-15 10:30N 38°40' W 009°50'4 8.8
2018-Jun-15 10:00N 38°35' W 009°48'4 8.5
2018-Jun-15 09:30N 38°31' W 009°47'4 8.5
2018-Jun-15 09:00N 38°27' W 009°46'4 8.6
2018-Jun-15 08:30N 38°23' W 009°45'4 8.5
2018-Jun-15 08:00N 38°19' W 009°43'5 8.5
2018-Jun-15 07:22N 38°13' W 009°42'4 8.7
2018-Jun-15 06:55N 38°10' W 009°40'4 8.8
2018-Jun-15 06:30N 38°06' W 009°40'4 8.6
2018-Jun-15 05:59N 38°02' W 009°38'4 8.5
2018-Jun-15 05:30N 37°58' W 009°37'4 8.7
2018-Jun-15 05:00N 37°53' W 009°36'4 8.7
2018-Jun-15 04:30N 37°49' W 009°35'4 8.9
2018-Jun-15 04:00N 37°45' W 009°33'4 8.9
2018-Jun-15 03:30N 37°41' W 009°32'4 8.9
2018-Jun-15 03:00N 37°36' W 009°31'5 9.0
2018-Jun-15 02:28N 37°31' W 009°30'4 8.6
2018-Jun-15 01:58N 37°27' W 009°28'4 8.2
2018-Jun-15 01:30N 37°24' W 009°27'5 8.2
2018-Jun-15 00:55N 37°19' W 009°26'3 8.1
2018-Jun-15 00:30N 37°16' W 009°25'4 8.4
2018-Jun-15 00:00N 37°12' W 009°24'4 8.2
2018-Jun-14 23:30N 37°08' W 009°23'4 7.8
2018-Jun-14 23:00N 37°04' W 009°22'4 7.4
2018-Jun-14 22:30N 37°00' W 009°21'4 7.3
2018-Jun-14 22:00N 36°57' W 009°20'4 7.7
2018-Jun-14 21:30N 36°53' W 009°18'7 8.3
2018-Jun-14 20:40N 36°48' W 009°12'3 9.0
2018-Jun-14 20:23N 36°46' W 009°10'3 8.2
2018-Jun-14 20:00N 36°45' W 009°06'4 8.2
2018-Jun-14 19:30N 36°43' W 009°01'4 8.1
2018-Jun-14 19:00N 36°42' W 008°57'4 8.3
2018-Jun-14 18:30N 36°41' W 008°52'4 8.6
2018-Jun-14 18:00N 36°40' W 008°47'17 9.2
2018-Jun-14 16:08N 36°34' W 008°26'2 9.4
2018-Jun-14 15:56N 36°33' W 008°24'6 9.3
2018-Jun-14 15:20N 36°32' W 008°18'5 9.9
2018-Jun-14 14:51N 36°30' W 008°12'4 9.6
2018-Jun-14 14:27N 36°29' W 008°07'4 9.8
2018-Jun-14 14:00N 36°28' W 008°02'5 9.7
2018-Jun-14 13:30N 36°26' W 007°56'5 9.9
2018-Jun-14 13:00N 36°24' W 007°51'108 9.5
2018-Jun-14 01:36N 35°58' W 005°41'3 9.8
2018-Jun-14 01:17N 35°58' W 005°37'3 9.3
2018-Jun-14 01:00N 35°58' W 005°34'4 8.6
2018-Jun-14 00:30N 35°59' W 005°29'4 7.8
2018-Jun-14 00:00N 36°00' W 005°24'4 7.1
2018-Jun-13 23:30N 36°01' W 005°20'3 6.5
2018-Jun-13 23:00N 36°02' W 005°16'3 6.3
2018-Jun-13 22:30N 36°03' W 005°12'3 6.0
2018-Jun-13 21:59N 36°03' W 005°08'210 8.5
2018-Jun-12 21:17N 37°26' W 001°08'410.2
2018-Jun-12 20:56N 37°29' W 001°05'4 9.9
2018-Jun-12 20:30N 37°32' W 001°01'3 0.2
2018-Jun-12 00:57N 37°34' W 000°58'2 4.9
2018-Jun-12 00:30N 37°33' W 001°00'611.3
2018-Jun-11 23:57N 37°28' W 001°05'811.7
2018-Jun-11 23:16N 37°22' W 001°11'20611.9
2018-Jun-11 05:55N 36°01' W 005°08'614.6
2018-Jun-11 05:30N 36°03' W 005°15'713.3
2018-Jun-11 05:00N 36°06' W 005°23'510.5
2018-Jun-11 04:30N 36°10' W 005°25'0 0.4
2018-Jun-11 03:52N 36°11' W 005°25'0 0.0
2018-Jun-11 03:28N 36°11' W 005°25'0 0.0
2018-Jun-11 02:58N 36°11' W 005°25'0 0.0
2018-Jun-11 02:28N 36°11' W 005°25'0 0.0
2018-Jun-10 17:34N 36°11' W 005°25'0 0.0
2018-Jun-10 17:28N 36°11' W 005°25'0 0.0
2018-Jun-10 16:52N 36°11' W 005°25'0 0.0
2018-Jun-10 16:04N 36°11' W 005°25'0 0.0
2018-Jun-10 15:58N 36°11' W 005°25'0 0.0
2018-Jun-10 14:22N 36°11' W 005°25'0 0.0
2018-Jun-10 13:28N 36°11' W 005°25'0 0.0
2018-Jun-10 12:58N 36°11' W 005°25'0 0.0
2018-Jun-10 12:28N 36°11' W 005°25'0 0.0
2018-Jun-10 11:58N 36°11' W 005°25'0 0.0
2018-Jun-10 11:28N 36°11' W 005°25'0 0.0
2018-Jun-10 10:58N 36°11' W 005°25'0 0.0
2018-Jun-10 10:28N 36°11' W 005°25'0 0.0
2018-Jun-10 09:22N 36°11' W 005°25'0 0.0
2018-Jun-10 08:58N 36°11' W 005°25'0 0.0
2018-Jun-10 08:10N 36°11' W 005°25'0 0.0
2018-Jun-10 07:58N 36°11' W 005°25'0 0.0
2018-Jun-10 07:28N 36°11' W 005°25'0 0.0
2018-Jun-10 06:58N 36°11' W 005°25'0 0.0
2018-Jun-10 06:28N 36°11' W 005°25'0 0.0
2018-Jun-10 05:58N 36°11' W 005°25'0 0.0
2018-Jun-10 05:16N 36°11' W 005°25'0 0.0
2018-Jun-10 04:58N 36°11' W 005°25'0 0.0
2018-Jun-10 04:22N 36°11' W 005°25'0 0.0
2018-Jun-10 03:58N 36°11' W 005°25'0 0.0
2018-Jun-10 03:28N 36°11' W 005°25'0 0.0
2018-Jun-10 02:58N 36°11' W 005°25'0 0.0
2018-Jun-10 02:28N 36°11' W 005°25'0 0.0
2018-Jun-10 01:58N 36°11' W 005°25'0 0.0
2018-Jun-10 01:28N 36°11' W 005°25'0 0.0
2018-Jun-10 00:58N 36°11' W 005°25'0 0.0
2018-Jun-10 00:28N 36°11' W 005°25'0 0.0
2018-Jun-09 23:58N 36°11' W 005°25'0 0.0
2018-Jun-09 23:28N 36°11' W 005°25'0 0.0
2018-Jun-09 22:52N 36°11' W 005°25'0 0.0
2018-Jun-09 22:22N 36°11' W 005°25'0 0.0
2018-Jun-09 21:58N 36°11' W 005°25'0 0.0
2018-Jun-09 21:28N 36°11' W 005°25'0 0.0
2018-Jun-09 20:04N 36°11' W 005°25'0 0.1
2018-Jun-09 19:58N 36°11' W 005°25'0 0.0
2018-Jun-09 19:22N 36°11' W 005°25'0 0.0
2018-Jun-09 18:58N 36°11' W 005°25'0 0.0
2018-Jun-09 18:10N 36°11' W 005°25'0 0.0
2018-Jun-09 17:58N 36°11' W 005°25'0 0.0
2018-Jun-09 17:16N 36°11' W 005°25'0 0.0
2018-Jun-09 16:58N 36°11' W 005°25'0 0.0
2018-Jun-09 16:22N 36°11' W 005°25'0 0.0
2018-Jun-09 15:46N 36°11' W 005°25'0 0.0
2018-Jun-09 15:22N 36°11' W 005°25'0 0.0
2018-Jun-09 14:28N 36°11' W 005°25'0 0.0
2018-Jun-09 13:58N 36°11' W 005°25'0 0.0
2018-Jun-09 13:28N 36°11' W 005°25'0 0.0
2018-Jun-09 12:58N 36°11' W 005°25'0 0.0
2018-Jun-09 12:28N 36°11' W 005°25'0 0.0
2018-Jun-09 11:52N 36°11' W 005°25'0 0.0
2018-Jun-09 11:28N 36°11' W 005°25'0 0.0
2018-Jun-09 10:58N 36°11' W 005°25'0 0.0
2018-Jun-09 02:22N 36°11' W 005°25'0 0.0
2018-Jun-09 01:58N 36°11' W 005°25'0 0.0
2018-Jun-09 00:34N 36°11' W 005°25'0 0.1
2018-Jun-09 00:28N 36°11' W 005°25'0 0.0
2018-Jun-08 23:58N 36°11' W 005°25'0 0.0
2018-Jun-08 22:16N 36°11' W 005°25'0 0.0
2018-Jun-08 21:58N 36°11' W 005°25'0 0.0
2018-Jun-08 21:22N 36°11' W 005°25'5 0.3
2018-Jun-08 07:08N 36°06' W 005°23'2 9.9
2018-Jun-08 06:58N 36°04' W 005°23'2 3.4
2018-Jun-08 06:30N 36°03' W 005°23'3 6.4
2018-Jun-08 06:00N 35°60' W 005°24'611.6
2018-Jun-08 05:30N 35°57' W 005°30'610.5
2018-Jun-08 04:58N 35°55' W 005°37'8 8.9
2018-Jun-08 04:04N 35°55' W 005°47'1 8.7
2018-Jun-08 03:58N 35°55' W 005°48'4 9.0
2018-Jun-08 03:30N 35°55' W 005°53'182 9.0
2018-Jun-07 07:25N 36°43' W 009°30'4 8.4
2018-Jun-07 06:59N 36°46' W 009°33'7 8.7
2018-Jun-07 06:08N 36°53' W 009°36'25 9.0
2018-Jun-07 03:21N 37°18' W 009°43'13 9.3
2018-Jun-07 01:57N 37°30' W 009°46'5 9.1
2018-Jun-07 01:27N 37°35' W 009°48'6 9.1
2018-Jun-07 00:49N 37°40' W 009°49'19 9.0
2018-Jun-06 22:43N 37°59' W 009°55'2 9.0
2018-Jun-06 22:28N 38°01' W 009°55'6 9.1
2018-Jun-06 21:51N 38°06' W 009°57'3 8.9
2018-Jun-06 21:30N 38°09' W 009°57'8 9.1
2018-Jun-06 20:40N 38°17' W 009°59'2 9.0
2018-Jun-06 20:24N 38°19' W 010°00'4 9.0
2018-Jun-06 20:00N 38°23' W 010°01'5 9.3
2018-Jun-06 19:30N 38°27' W 010°03'5 9.3
2018-Jun-06 18:59N 38°32' W 010°04'5 9.6
2018-Jun-06 18:30N 38°36' W 010°06'5 9.5
2018-Jun-06 18:00N 38°41' W 010°07'5 9.2
2018-Jun-06 17:30N 38°46' W 010°07'5 9.1
2018-Jun-06 17:00N 38°50' W 010°07'4 8.9
2018-Jun-06 16:30N 38°55' W 010°07'5 9.0
2018-Jun-06 16:00N 38°59' W 010°07'5 9.2
2018-Jun-06 15:30N 39°04' W 010°07'5 9.2
2018-Jun-06 15:00N 39°08' W 010°07'5 9.4
2018-Jun-06 14:29N 39°13' W 010°07'  
Track history (hours):
 
Tides and Currents Weather Stations Pressure Air Temp Water Temp Dewpoint Dewpoint Depression Visibility Wind Speed Wind Dir Waves Ship Positions

Penhar

Last reported at 2018-Jun-16 03:48 UTC. Time now 2018-Jun-17 22:16 UTC.
Position N 41°01' W 009°49'.

Length 119 m; draft 6.2 m.

Type: Ship. MMSI: 246666000.

Date/timePositionNaut miles runAvg speedWind from/ knotsBaromVisibWave heightAir tempDewpointWater temp
2018-Jun-16 03:48N 41°01' W 009°49'2 8.2
2018-Jun-16 03:30N 40°58' W 009°49'5 8.1
2018-Jun-16 02:55N 40°54' W 009°49'3 7.8
2018-Jun-16 02:30N 40°51' W 009°49'4 7.8
2018-Jun-16 02:00N 40°47' W 009°49'4 7.6
2018-Jun-16 01:30N 40°43' W 009°48'4 7.4
2018-Jun-16 00:59N 40°39' W 009°48'4 7.5
2018-Jun-16 00:30N 40°35' W 009°48'4 7.6
2018-Jun-15 23:59N 40°31' W 009°48'4 7.7
2018-Jun-15 23:30N 40°28' W 009°49'4 7.5
2018-Jun-15 22:58N 40°24' W 009°49'3 7.5
2018-Jun-15 22:30N 40°20' W 009°49'4 7.5
2018-Jun-15 22:00N 40°16' W 009°49'4 7.6
2018-Jun-15 21:30N 40°13' W 009°50'4 7.5
2018-Jun-15 21:00N 40°09' W 009°50'4 7.7
2018-Jun-15 20:29N 40°05' W 009°50'4 8.0
2018-Jun-15 20:00N 40°01' W 009°49'4 8.2
2018-Jun-15 19:30N 39°57' W 009°50'4 8.0
2018-Jun-15 19:00N 39°53' W 009°50'4 8.0
2018-Jun-15 18:30N 39°49' W 009°50'4 8.2
2018-Jun-15 18:00N 39°45' W 009°50'4 8.3
2018-Jun-15 17:30N 39°41' W 009°50'4 8.3
2018-Jun-15 16:58N 39°36' W 009°50'4 8.2
2018-Jun-15 16:30N 39°32' W 009°50'4 8.3
2018-Jun-15 16:00N 39°28' W 009°50'4 8.5
2018-Jun-15 15:28N 39°24' W 009°50'4 8.6
2018-Jun-15 15:00N 39°20' W 009°50'4 8.8
2018-Jun-15 14:30N 39°15' W 009°50'4 8.9
2018-Jun-15 14:00N 39°11' W 009°50'4 8.8
2018-Jun-15 13:30N 39°06' W 009°50'4 8.7
2018-Jun-15 13:00N 39°02' W 009°50'4 9.0
2018-Jun-15 12:30N 38°58' W 009°50'5 9.1
2018-Jun-15 12:00N 38°53' W 009°50'5 9.2
2018-Jun-15 11:30N 38°49' W 009°51'5 9.2
2018-Jun-15 11:00N 38°44' W 009°51'4 9.0
2018-Jun-15 10:30N 38°40' W 009°50'4 8.8
2018-Jun-15 10:00N 38°35' W 009°48'4 8.5
2018-Jun-15 09:30N 38°31' W 009°47'4 8.5
2018-Jun-15 09:00N 38°27' W 009°46'4 8.6
2018-Jun-15 08:30N 38°23' W 009°45'4 8.5
2018-Jun-15 08:00N 38°19' W 009°43'5 8.5
2018-Jun-15 07:22N 38°13' W 009°42'4 8.7
2018-Jun-15 06:55N 38°10' W 009°40'4 8.8
2018-Jun-15 06:30N 38°06' W 009°40'4 8.6
2018-Jun-15 05:59N 38°02' W 009°38'4 8.5
2018-Jun-15 05:30N 37°58' W 009°37'4 8.7
2018-Jun-15 05:00N 37°53' W 009°36'4 8.7
2018-Jun-15 04:30N 37°49' W 009°35'4 8.9
2018-Jun-15 04:00N 37°45' W 009°33'4 8.9
2018-Jun-15 03:30N 37°41' W 009°32'4 8.9
2018-Jun-15 03:00N 37°36' W 009°31'5 9.0
2018-Jun-15 02:28N 37°31' W 009°30'4 8.6
2018-Jun-15 01:58N 37°27' W 009°28'4 8.2
2018-Jun-15 01:30N 37°24' W 009°27'5 8.2
2018-Jun-15 00:55N 37°19' W 009°26'3 8.1
2018-Jun-15 00:30N 37°16' W 009°25'4 8.4
2018-Jun-15 00:00N 37°12' W 009°24'4 8.2
2018-Jun-14 23:30N 37°08' W 009°23'4 7.8
2018-Jun-14 23:00N 37°04' W 009°22'4 7.4
2018-Jun-14 22:30N 37°00' W 009°21'4 7.3
2018-Jun-14 22:00N 36°57' W 009°20'4 7.7
2018-Jun-14 21:30N 36°53' W 009°18'7 8.3
2018-Jun-14 20:40N 36°48' W 009°12'3 9.0
2018-Jun-14 20:23N 36°46' W 009°10'3 8.2
2018-Jun-14 20:00N 36°45' W 009°06'4 8.2
2018-Jun-14 19:30N 36°43' W 009°01'4 8.1
2018-Jun-14 19:00N 36°42' W 008°57'4 8.3
2018-Jun-14 18:30N 36°41' W 008°52'4 8.6
2018-Jun-14 18:00N 36°40' W 008°47'17 9.2
2018-Jun-14 16:08N 36°34' W 008°26'2 9.4
2018-Jun-14 15:56N 36°33' W 008°24'6 9.3
2018-Jun-14 15:20N 36°32' W 008°18'5 9.9
2018-Jun-14 14:51N 36°30' W 008°12'4 9.6
2018-Jun-14 14:27N 36°29' W 008°07'4 9.8
2018-Jun-14 14:00N 36°28' W 008°02'5 9.7
2018-Jun-14 13:30N 36°26' W 007°56'5 9.9
2018-Jun-14 13:00N 36°24' W 007°51'108 9.5
2018-Jun-14 01:36N 35°58' W 005°41'3 9.8
2018-Jun-14 01:17N 35°58' W 005°37'3 9.3
2018-Jun-14 01:00N 35°58' W 005°34'4 8.6
2018-Jun-14 00:30N 35°59' W 005°29'4 7.8
2018-Jun-14 00:00N 36°00' W 005°24'4 7.1
2018-Jun-13 23:30N 36°01' W 005°20'3 6.5
2018-Jun-13 23:00N 36°02' W 005°16'3 6.3
2018-Jun-13 22:30N 36°03' W 005°12'3 6.0
2018-Jun-13 21:59N 36°03' W 005°08'210 8.5
2018-Jun-12 21:17N 37°26' W 001°08'410.2
2018-Jun-12 20:56N 37°29' W 001°05'4 9.9
2018-Jun-12 20:30N 37°32' W 001°01'3 0.2
2018-Jun-12 00:57N 37°34' W 000°58'2 4.9
2018-Jun-12 00:30N 37°33' W 001°00'611.3
2018-Jun-11 23:57N 37°28' W 001°05'811.7
2018-Jun-11 23:16N 37°22' W 001°11'20611.9
2018-Jun-11 05:55N 36°01' W 005°08'614.6
2018-Jun-11 05:30N 36°03' W 005°15'713.3
2018-Jun-11 05:00N 36°06' W 005°23'510.5
2018-Jun-11 04:30N 36°10' W 005°25'0 0.4
2018-Jun-11 03:52N 36°11' W 005°25'0 0.0
2018-Jun-11 03:28N 36°11' W 005°25'0 0.0
2018-Jun-11 02:58N 36°11' W 005°25'0 0.0
2018-Jun-11 02:28N 36°11' W 005°25'0 0.0
2018-Jun-10 17:34N 36°11' W 005°25'0 0.0
2018-Jun-10 17:28N 36°11' W 005°25'0 0.0
2018-Jun-10 16:52N 36°11' W 005°25'0 0.0
2018-Jun-10 16:04N 36°11' W 005°25'0 0.0
2018-Jun-10 15:58N 36°11' W 005°25'0 0.0
2018-Jun-10 14:22N 36°11' W 005°25'0 0.0
2018-Jun-10 13:28N 36°11' W 005°25'0 0.0
2018-Jun-10 12:58N 36°11' W 005°25'0 0.0
2018-Jun-10 12:28N 36°11' W 005°25'0 0.0
2018-Jun-10 11:58N 36°11' W 005°25'0 0.0
2018-Jun-10 11:28N 36°11' W 005°25'0 0.0
2018-Jun-10 10:58N 36°11' W 005°25'0 0.0
2018-Jun-10 10:28N 36°11' W 005°25'0 0.0
2018-Jun-10 09:22N 36°11' W 005°25'0 0.0
2018-Jun-10 08:58N 36°11' W 005°25'0 0.0
2018-Jun-10 08:10N 36°11' W 005°25'0 0.0
2018-Jun-10 07:58N 36°11' W 005°25'0 0.0
2018-Jun-10 07:28N 36°11' W 005°25'0 0.0
2018-Jun-10 06:58N 36°11' W 005°25'0 0.0
2018-Jun-10 06:28N 36°11' W 005°25'0 0.0
2018-Jun-10 05:58N 36°11' W 005°25'0 0.0
2018-Jun-10 05:16N 36°11' W 005°25'0 0.0
2018-Jun-10 04:58N 36°11' W 005°25'0 0.0
2018-Jun-10 04:22N 36°11' W 005°25'0 0.0
2018-Jun-10 03:58N 36°11' W 005°25'0 0.0
2018-Jun-10 03:28N 36°11' W 005°25'0 0.0
2018-Jun-10 02:58N 36°11' W 005°25'0 0.0
2018-Jun-10 02:28N 36°11' W 005°25'0 0.0
2018-Jun-10 01:58N 36°11' W 005°25'0 0.0
2018-Jun-10 01:28N 36°11' W 005°25'0 0.0
2018-Jun-10 00:58N 36°11' W 005°25'0 0.0
2018-Jun-10 00:28N 36°11' W 005°25'0 0.0
2018-Jun-09 23:58N 36°11' W 005°25'0 0.0
2018-Jun-09 23:28N 36°11' W 005°25'0 0.0
2018-Jun-09 22:52N 36°11' W 005°25'0 0.0
2018-Jun-09 22:22N 36°11' W 005°25'0 0.0
2018-Jun-09 21:58N 36°11' W 005°25'0 0.0
2018-Jun-09 21:28N 36°11' W 005°25'0 0.0
2018-Jun-09 20:04N 36°11' W 005°25'0 0.1
2018-Jun-09 19:58N 36°11' W 005°25'0 0.0
2018-Jun-09 19:22N 36°11' W 005°25'0 0.0
2018-Jun-09 18:58N 36°11' W 005°25'0 0.0
2018-Jun-09 18:10N 36°11' W 005°25'0 0.0
2018-Jun-09 17:58N 36°11' W 005°25'0 0.0
2018-Jun-09 17:16N 36°11' W 005°25'0 0.0
2018-Jun-09 16:58N 36°11' W 005°25'0 0.0
2018-Jun-09 16:22N 36°11' W 005°25'0 0.0
2018-Jun-09 15:46N 36°11' W 005°25'0 0.0
2018-Jun-09 15:22N 36°11' W 005°25'0 0.0
2018-Jun-09 14:28N 36°11' W 005°25'0 0.0
2018-Jun-09 13:58N 36°11' W 005°25'0 0.0
2018-Jun-09 13:28N 36°11' W 005°25'0 0.0
2018-Jun-09 12:58N 36°11' W 005°25'0 0.0
2018-Jun-09 12:28N 36°11' W 005°25'0 0.0
2018-Jun-09 11:52N 36°11' W 005°25'0 0.0
2018-Jun-09 11:28N 36°11' W 005°25'0 0.0
2018-Jun-09 10:58N 36°11' W 005°25'0 0.0
2018-Jun-09 02:22N 36°11' W 005°25'0 0.0
2018-Jun-09 01:58N 36°11' W 005°25'0 0.0
2018-Jun-09 00:34N 36°11' W 005°25'0 0.1
2018-Jun-09 00:28N 36°11' W 005°25'0 0.0
2018-Jun-08 23:58N 36°11' W 005°25'0 0.0
2018-Jun-08 22:16N 36°11' W 005°25'0 0.0
2018-Jun-08 21:58N 36°11' W 005°25'0 0.0
2018-Jun-08 21:22N 36°11' W 005°25'5 0.3
2018-Jun-08 07:08N 36°06' W 005°23'2 9.9
2018-Jun-08 06:58N 36°04' W 005°23'2 3.4
2018-Jun-08 06:30N 36°03' W 005°23'3 6.4
2018-Jun-08 06:00N 35°60' W 005°24'611.6
2018-Jun-08 05:30N 35°57' W 005°30'610.5
2018-Jun-08 04:58N 35°55' W 005°37'8 8.9
2018-Jun-08 04:04N 35°55' W 005°47'1 8.7
2018-Jun-08 03:58N 35°55' W 005°48'4 9.0
2018-Jun-08 03:30N 35°55' W 005°53'182 9.0
2018-Jun-07 07:25N 36°43' W 009°30'4 8.4
2018-Jun-07 06:59N 36°46' W 009°33'7 8.7
2018-Jun-07 06:08N 36°53' W 009°36'25 9.0
2018-Jun-07 03:21N 37°18' W 009°43'13 9.3
2018-Jun-07 01:57N 37°30' W 009°46'5 9.1
2018-Jun-07 01:27N 37°35' W 009°48'6 9.1
2018-Jun-07 00:49N 37°40' W 009°49'19 9.0
2018-Jun-06 22:43N 37°59' W 009°55'2 9.0
2018-Jun-06 22:28N 38°01' W 009°55'6 9.1
2018-Jun-06 21:51N 38°06' W 009°57'3 8.9
2018-Jun-06 21:30N 38°09' W 009°57'8 9.1
2018-Jun-06 20:40N 38°17' W 009°59'2 9.0
2018-Jun-06 20:24N 38°19' W 010°00'4 9.0
2018-Jun-06 20:00N 38°23' W 010°01'5 9.3
2018-Jun-06 19:30N 38°27' W 010°03'5 9.3
2018-Jun-06 18:59N 38°32' W 010°04'5 9.6
2018-Jun-06 18:30N 38°36' W 010°06'5 9.5
2018-Jun-06 18:00N 38°41' W 010°07'5 9.2
2018-Jun-06 17:30N 38°46' W 010°07'5 9.1
2018-Jun-06 17:00N 38°50' W 010°07'4 8.9
2018-Jun-06 16:30N 38°55' W 010°07'5 9.0
2018-Jun-06 16:00N 38°59' W 010°07'5 9.2
2018-Jun-06 15:30N 39°04' W 010°07'5 9.2
2018-Jun-06 15:00N 39°08' W 010°07'5 9.4
2018-Jun-06 14:29N 39°13' W 010°07'  

Dump ship's entire track history